sensor_id;sensor_type;location;lat;lon;timestamp;P1;durP1;ratioP1;P2;durP2;ratioP2
43664;SDS011;29263;48.172;11.484;2024-02-14T00:00:00;3.47;;;1.20;;
43664;SDS011;29263;48.172;11.484;2024-02-14T00:02:26;1.60;;;1.17;;
43664;SDS011;29263;48.172;11.484;2024-02-14T00:04:52;2.27;;;1.00;;
43664;SDS011;29263;48.172;11.484;2024-02-14T00:07:18;4.80;;;1.47;;
43664;SDS011;29263;48.172;11.484;2024-02-14T00:09:44;1.57;;;1.03;;
43664;SDS011;29263;48.172;11.484;2024-02-14T00:12:10;3.70;;;1.03;;
43664;SDS011;29263;48.172;11.484;2024-02-14T00:14:36;3.13;;;1.10;;
43664;SDS011;29263;48.172;11.484;2024-02-14T00:17:02;2.77;;;1.03;;
43664;SDS011;29263;48.172;11.484;2024-02-14T00:19:29;1.83;;;1.10;;
43664;SDS011;29263;48.172;11.484;2024-02-14T00:21:55;2.57;;;1.00;;
43664;SDS011;29263;48.172;11.484;2024-02-14T00:24:20;2.13;;;0.80;;
43664;SDS011;29263;48.172;11.484;2024-02-14T00:26:47;1.43;;;0.90;;
43664;SDS011;29263;48.172;11.484;2024-02-14T00:29:14;2.10;;;1.20;;
43664;SDS011;29263;48.172;11.484;2024-02-14T00:31:39;3.63;;;1.20;;
43664;SDS011;29263;48.172;11.484;2024-02-14T00:34:05;3.50;;;1.20;;
43664;SDS011;29263;48.172;11.484;2024-02-14T00:36:31;0.97;;;0.70;;
43664;SDS011;29263;48.172;11.484;2024-02-14T00:38:57;2.47;;;1.00;;
43664;SDS011;29263;48.172;11.484;2024-02-14T00:41:22;2.83;;;0.80;;
43664;SDS011;29263;48.172;11.484;2024-02-14T00:43:48;1.93;;;1.03;;
43664;SDS011;29263;48.172;11.484;2024-02-14T00:46:16;1.23;;;0.70;;
43664;SDS011;29263;48.172;11.484;2024-02-14T00:48:45;2.63;;;1.00;;
43664;SDS011;29263;48.172;11.484;2024-02-14T00:51:10;2.77;;;0.90;;
43664;SDS011;29263;48.172;11.484;2024-02-14T00:53:37;3.13;;;0.93;;
43664;SDS011;29263;48.172;11.484;2024-02-14T00:56:02;1.07;;;0.80;;
43664;SDS011;29263;48.172;11.484;2024-02-14T00:58:28;4.10;;;1.03;;
43664;SDS011;29263;48.172;11.484;2024-02-14T01:00:54;3.87;;;0.97;;
43664;SDS011;29263;48.172;11.484;2024-02-14T01:03:19;1.73;;;0.70;;
43664;SDS011;29263;48.172;11.484;2024-02-14T01:05:45;1.37;;;0.77;;
43664;SDS011;29263;48.172;11.484;2024-02-14T01:08:12;2.03;;;1.00;;
43664;SDS011;29263;48.172;11.484;2024-02-14T01:10:38;1.20;;;0.73;;
43664;SDS011;29263;48.172;11.484;2024-02-14T01:13:04;3.47;;;1.10;;
43664;SDS011;29263;48.172;11.484;2024-02-14T01:15:31;0.93;;;0.70;;
43664;SDS011;29263;48.172;11.484;2024-02-14T01:17:57;2.40;;;1.03;;
43664;SDS011;29263;48.172;11.484;2024-02-14T01:20:22;1.67;;;0.83;;
43664;SDS011;29263;48.172;11.484;2024-02-14T01:22:48;1.37;;;1.17;;
43664;SDS011;29263;48.172;11.484;2024-02-14T01:25:14;1.77;;;0.97;;
43664;SDS011;29263;48.172;11.484;2024-02-14T01:27:39;1.53;;;0.70;;
43664;SDS011;29263;48.172;11.484;2024-02-14T01:30:06;2.20;;;0.80;;
43664;SDS011;29263;48.172;11.484;2024-02-14T01:32:32;1.23;;;1.03;;
43664;SDS011;29263;48.172;11.484;2024-02-14T01:34:58;1.77;;;0.63;;
43664;SDS011;29263;48.172;11.484;2024-02-14T01:37:24;0.83;;;0.63;;
43664;SDS011;29263;48.172;11.484;2024-02-14T01:39:50;1.10;;;0.70;;
43664;SDS011;29263;48.172;11.484;2024-02-14T01:42:15;1.47;;;0.57;;
43664;SDS011;29263;48.172;11.484;2024-02-14T01:44:41;1.80;;;0.60;;
43664;SDS011;29263;48.172;11.484;2024-02-14T01:47:08;2.10;;;0.97;;
43664;SDS011;29263;48.172;11.484;2024-02-14T01:49:35;2.17;;;0.60;;
43664;SDS011;29263;48.172;11.484;2024-02-14T01:52:01;1.03;;;0.70;;
43664;SDS011;29263;48.172;11.484;2024-02-14T01:54:29;2.00;;;0.60;;
43664;SDS011;29263;48.172;11.484;2024-02-14T01:56:55;1.57;;;0.50;;
43664;SDS011;29263;48.172;11.484;2024-02-14T01:59:23;1.00;;;0.57;;
43664;SDS011;29263;48.172;11.484;2024-02-14T02:01:49;0.93;;;0.60;;
43664;SDS011;29263;48.172;11.484;2024-02-14T02:04:16;0.87;;;0.47;;
43664;SDS011;29263;48.172;11.484;2024-02-14T02:06:43;1.07;;;0.50;;
43664;SDS011;29263;48.172;11.484;2024-02-14T02:09:09;1.00;;;0.57;;
43664;SDS011;29263;48.172;11.484;2024-02-14T02:11:48;0.77;;;0.60;;
43664;SDS011;29263;48.172;11.484;2024-02-14T02:14:14;1.20;;;0.60;;
43664;SDS011;29263;48.172;11.484;2024-02-14T02:16:41;2.07;;;0.67;;
43664;SDS011;29263;48.172;11.484;2024-02-14T02:19:07;1.17;;;0.67;;
43664;SDS011;29263;48.172;11.484;2024-02-14T02:21:34;0.40;;;0.40;;
43664;SDS011;29263;48.172;11.484;2024-02-14T02:24:01;2.80;;;0.70;;
43664;SDS011;29263;48.172;11.484;2024-02-14T02:26:27;0.97;;;0.50;;
43664;SDS011;29263;48.172;11.484;2024-02-14T02:28:52;0.60;;;0.40;;
43664;SDS011;29263;48.172;11.484;2024-02-14T02:31:19;0.93;;;0.57;;
43664;SDS011;29263;48.172;11.484;2024-02-14T02:33:45;1.03;;;0.60;;
43664;SDS011;29263;48.172;11.484;2024-02-14T02:36:11;1.63;;;0.77;;
43664;SDS011;29263;48.172;11.484;2024-02-14T02:38:37;0.50;;;0.50;;
43664;SDS011;29263;48.172;11.484;2024-02-14T02:41:03;1.37;;;0.67;;
43664;SDS011;29263;48.172;11.484;2024-02-14T02:43:31;1.67;;;0.60;;
43664;SDS011;29263;48.172;11.484;2024-02-14T02:45:57;3.13;;;0.50;;
43664;SDS011;29263;48.172;11.484;2024-02-14T02:48:23;1.03;;;0.47;;
43664;SDS011;29263;48.172;11.484;2024-02-14T02:50:49;0.90;;;0.60;;
43664;SDS011;29263;48.172;11.484;2024-02-14T02:53:16;2.03;;;0.60;;
43664;SDS011;29263;48.172;11.484;2024-02-14T02:55:42;1.53;;;0.70;;
43664;SDS011;29263;48.172;11.484;2024-02-14T02:58:08;0.93;;;0.60;;
43664;SDS011;29263;48.172;11.484;2024-02-14T03:00:34;1.43;;;0.63;;
43664;SDS011;29263;48.172;11.484;2024-02-14T03:02:59;1.27;;;0.47;;
43664;SDS011;29263;48.172;11.484;2024-02-14T03:05:25;1.80;;;0.47;;
43664;SDS011;29263;48.172;11.484;2024-02-14T03:07:52;1.10;;;0.60;;
43664;SDS011;29263;48.172;11.484;2024-02-14T03:10:18;0.50;;;0.50;;
43664;SDS011;29263;48.172;11.484;2024-02-14T03:12:44;0.87;;;0.60;;
43664;SDS011;29263;48.172;11.484;2024-02-14T03:17:39;1.90;;;0.50;;
43664;SDS011;29263;48.172;11.484;2024-02-14T03:20:05;0.80;;;0.50;;
43664;SDS011;29263;48.172;11.484;2024-02-14T03:22:38;1.90;;;0.73;;
43664;SDS011;29263;48.172;11.484;2024-02-14T03:25:08;0.93;;;0.50;;
43664;SDS011;29263;48.172;11.484;2024-02-14T03:27:34;0.60;;;0.40;;
43664;SDS011;29263;48.172;11.484;2024-02-14T03:30:00;0.50;;;0.40;;
43664;SDS011;29263;48.172;11.484;2024-02-14T03:32:28;3.23;;;0.70;;
43664;SDS011;29263;48.172;11.484;2024-02-14T03:34:54;0.90;;;0.50;;
43664;SDS011;29263;48.172;11.484;2024-02-14T03:37:20;1.97;;;0.60;;
43664;SDS011;29263;48.172;11.484;2024-02-14T03:39:45;1.73;;;0.60;;
43664;SDS011;29263;48.172;11.484;2024-02-14T03:42:12;0.80;;;0.50;;
43664;SDS011;29263;48.172;11.484;2024-02-14T03:44:37;1.17;;;0.53;;
43664;SDS011;29263;48.172;11.484;2024-02-14T03:47:03;0.90;;;0.50;;
43664;SDS011;29263;48.172;11.484;2024-02-14T03:49:29;0.70;;;0.50;;
43664;SDS011;29263;48.172;11.484;2024-02-14T03:51:56;1.97;;;0.60;;
43664;SDS011;29263;48.172;11.484;2024-02-14T03:54:21;1.13;;;0.50;;
43664;SDS011;29263;48.172;11.484;2024-02-14T03:56:48;1.17;;;0.50;;
43664;SDS011;29263;48.172;11.484;2024-02-14T03:59:14;0.80;;;0.50;;
43664;SDS011;29263;48.172;11.484;2024-02-14T04:01:43;1.57;;;0.60;;
43664;SDS011;29263;48.172;11.484;2024-02-14T04:04:10;0.80;;;0.50;;
43664;SDS011;29263;48.172;11.484;2024-02-14T04:06:35;0.97;;;0.47;;
43664;SDS011;29263;48.172;11.484;2024-02-14T04:09:01;1.60;;;0.47;;
43664;SDS011;29263;48.172;11.484;2024-02-14T04:11:27;1.30;;;0.47;;
43664;SDS011;29263;48.172;11.484;2024-02-14T04:13:52;3.50;;;0.70;;
43664;SDS011;29263;48.172;11.484;2024-02-14T04:16:21;0.90;;;0.50;;
43664;SDS011;29263;48.172;11.484;2024-02-14T04:18:47;2.30;;;0.70;;
43664;SDS011;29263;48.172;11.484;2024-02-14T04:21:12;0.70;;;0.60;;
43664;SDS011;29263;48.172;11.484;2024-02-14T04:23:39;1.30;;;0.37;;
43664;SDS011;29263;48.172;11.484;2024-02-14T04:26:05;1.90;;;0.70;;
43664;SDS011;29263;48.172;11.484;2024-02-14T04:28:31;0.83;;;0.50;;
43664;SDS011;29263;48.172;11.484;2024-02-14T04:30:56;0.50;;;0.47;;
43664;SDS011;29263;48.172;11.484;2024-02-14T04:33:22;0.70;;;0.43;;
43664;SDS011;29263;48.172;11.484;2024-02-14T04:35:49;1.57;;;0.67;;
43664;SDS011;29263;48.172;11.484;2024-02-14T04:38:15;2.73;;;0.53;;
43664;SDS011;29263;48.172;11.484;2024-02-14T04:40:41;0.80;;;0.40;;
43664;SDS011;29263;48.172;11.484;2024-02-14T04:43:07;0.47;;;0.40;;
43664;SDS011;29263;48.172;11.484;2024-02-14T04:45:32;0.80;;;0.30;;
43664;SDS011;29263;48.172;11.484;2024-02-14T04:47:58;1.90;;;0.40;;
43664;SDS011;29263;48.172;11.484;2024-02-14T04:50:23;1.67;;;0.50;;
43664;SDS011;29263;48.172;11.484;2024-02-14T04:52:49;2.17;;;0.60;;
43664;SDS011;29263;48.172;11.484;2024-02-14T04:55:15;0.80;;;0.50;;
43664;SDS011;29263;48.172;11.484;2024-02-14T04:57:40;1.13;;;0.50;;
43664;SDS011;29263;48.172;11.484;2024-02-14T05:00:06;1.43;;;0.60;;
43664;SDS011;29263;48.172;11.484;2024-02-14T05:02:34;0.40;;;0.40;;
43664;SDS011;29263;48.172;11.484;2024-02-14T05:05:00;1.73;;;0.40;;
43664;SDS011;29263;48.172;11.484;2024-02-14T05:07:26;1.30;;;0.50;;
43664;SDS011;29263;48.172;11.484;2024-02-14T05:09:52;0.60;;;0.50;;
43664;SDS011;29263;48.172;11.484;2024-02-14T05:12:20;1.10;;;0.47;;
43664;SDS011;29263;48.172;11.484;2024-02-14T05:14:46;0.63;;;0.40;;
43664;SDS011;29263;48.172;11.484;2024-02-14T05:17:12;1.53;;;0.40;;
43664;SDS011;29263;48.172;11.484;2024-02-14T05:19:38;3.43;;;0.70;;
43664;SDS011;29263;48.172;11.484;2024-02-14T05:22:06;0.50;;;0.43;;
43664;SDS011;29263;48.172;11.484;2024-02-14T05:24:32;0.87;;;0.53;;
43664;SDS011;29263;48.172;11.484;2024-02-14T05:26:58;3.37;;;0.50;;
43664;SDS011;29263;48.172;11.484;2024-02-14T05:29:23;0.80;;;0.37;;
43664;SDS011;29263;48.172;11.484;2024-02-14T05:31:49;0.40;;;0.30;;
43664;SDS011;29263;48.172;11.484;2024-02-14T05:34:17;1.53;;;0.40;;
43664;SDS011;29263;48.172;11.484;2024-02-14T05:36:42;1.13;;;0.50;;
43664;SDS011;29263;48.172;11.484;2024-02-14T05:39:10;3.77;;;0.53;;
43664;SDS011;29263;48.172;11.484;2024-02-14T05:41:36;3.33;;;0.67;;
43664;SDS011;29263;48.172;11.484;2024-02-14T05:44:02;1.57;;;0.60;;
43664;SDS011;29263;48.172;11.484;2024-02-14T05:46:27;0.50;;;0.40;;
43664;SDS011;29263;48.172;11.484;2024-02-14T05:48:53;1.13;;;0.50;;
43664;SDS011;29263;48.172;11.484;2024-02-14T05:51:20;1.63;;;0.50;;
43664;SDS011;29263;48.172;11.484;2024-02-14T05:53:45;2.30;;;0.60;;
43664;SDS011;29263;48.172;11.484;2024-02-14T05:56:11;1.20;;;0.50;;
43664;SDS011;29263;48.172;11.484;2024-02-14T05:58:37;1.40;;;0.80;;
43664;SDS011;29263;48.172;11.484;2024-02-14T06:01:02;0.60;;;0.50;;
43664;SDS011;29263;48.172;11.484;2024-02-14T06:03:28;0.77;;;0.40;;
43664;SDS011;29263;48.172;11.484;2024-02-14T06:05:53;4.67;;;0.63;;
43664;SDS011;29263;48.172;11.484;2024-02-14T06:08:19;1.73;;;0.60;;
43664;SDS011;29263;48.172;11.484;2024-02-14T06:10:45;3.00;;;0.90;;
43664;SDS011;29263;48.172;11.484;2024-02-14T06:13:12;2.03;;;0.70;;
43664;SDS011;29263;48.172;11.484;2024-02-14T06:15:38;5.67;;;1.27;;
43664;SDS011;29263;48.172;11.484;2024-02-14T06:18:06;1.97;;;0.67;;
43664;SDS011;29263;48.172;11.484;2024-02-14T06:20:32;6.13;;;0.60;;
43664;SDS011;29263;48.172;11.484;2024-02-14T06:22:58;0.77;;;0.70;;
43664;SDS011;29263;48.172;11.484;2024-02-14T06:25:23;1.07;;;0.70;;
43664;SDS011;29263;48.172;11.484;2024-02-14T06:27:49;1.97;;;0.70;;
43664;SDS011;29263;48.172;11.484;2024-02-14T06:30:14;1.50;;;0.60;;
43664;SDS011;29263;48.172;11.484;2024-02-14T06:32:42;0.83;;;0.80;;
43664;SDS011;29263;48.172;11.484;2024-02-14T06:35:07;2.20;;;1.07;;
43664;SDS011;29263;48.172;11.484;2024-02-14T06:37:33;2.13;;;0.90;;
43664;SDS011;29263;48.172;11.484;2024-02-14T06:39:58;2.53;;;0.70;;
43664;SDS011;29263;48.172;11.484;2024-02-14T06:42:24;1.10;;;0.63;;
43664;SDS011;29263;48.172;11.484;2024-02-14T06:44:50;1.40;;;0.73;;
43664;SDS011;29263;48.172;11.484;2024-02-14T06:47:15;0.80;;;0.60;;
43664;SDS011;29263;48.172;11.484;2024-02-14T06:49:41;4.43;;;0.87;;
43664;SDS011;29263;48.172;11.484;2024-02-14T06:52:07;2.07;;;0.73;;
43664;SDS011;29263;48.172;11.484;2024-02-14T06:54:32;1.97;;;0.73;;
43664;SDS011;29263;48.172;11.484;2024-02-14T06:56:58;1.50;;;0.87;;
43664;SDS011;29263;48.172;11.484;2024-02-14T06:59:25;1.50;;;0.80;;
43664;SDS011;29263;48.172;11.484;2024-02-14T07:01:51;2.00;;;0.70;;
43664;SDS011;29263;48.172;11.484;2024-02-14T07:04:19;4.27;;;0.93;;
43664;SDS011;29263;48.172;11.484;2024-02-14T07:06:50;1.73;;;0.80;;
43664;SDS011;29263;48.172;11.484;2024-02-14T07:09:17;1.13;;;0.77;;
43664;SDS011;29263;48.172;11.484;2024-02-14T07:11:42;2.07;;;0.93;;
43664;SDS011;29263;48.172;11.484;2024-02-14T07:14:08;1.93;;;0.90;;
43664;SDS011;29263;48.172;11.484;2024-02-14T07:16:33;2.20;;;0.90;;
43664;SDS011;29263;48.172;11.484;2024-02-14T07:18:59;2.33;;;0.70;;
43664;SDS011;29263;48.172;11.484;2024-02-14T07:21:25;1.40;;;0.87;;
43664;SDS011;29263;48.172;11.484;2024-02-14T07:23:50;3.30;;;1.00;;
43664;SDS011;29263;48.172;11.484;2024-02-14T07:26:17;4.23;;;0.93;;
43664;SDS011;29263;48.172;11.484;2024-02-14T07:28:43;4.43;;;0.90;;
43664;SDS011;29263;48.172;11.484;2024-02-14T07:31:09;2.53;;;0.90;;
43664;SDS011;29263;48.172;11.484;2024-02-14T07:33:34;5.13;;;0.53;;
43664;SDS011;29263;48.172;11.484;2024-02-14T07:36:00;3.87;;;1.07;;
43664;SDS011;29263;48.172;11.484;2024-02-14T07:38:26;4.70;;;1.70;;
43664;SDS011;29263;48.172;11.484;2024-02-14T07:40:52;5.83;;;0.83;;
43664;SDS011;29263;48.172;11.484;2024-02-14T07:43:17;3.07;;;0.83;;
43664;SDS011;29263;48.172;11.484;2024-02-14T07:45:43;1.50;;;1.00;;
43664;SDS011;29263;48.172;11.484;2024-02-14T07:48:09;4.67;;;0.70;;
43664;SDS011;29263;48.172;11.484;2024-02-14T07:50:34;2.03;;;0.93;;
43664;SDS011;29263;48.172;11.484;2024-02-14T07:53:01;1.33;;;0.67;;
43664;SDS011;29263;48.172;11.484;2024-02-14T07:55:26;2.63;;;0.70;;
43664;SDS011;29263;48.172;11.484;2024-02-14T07:57:52;1.33;;;0.70;;
43664;SDS011;29263;48.172;11.484;2024-02-14T08:00:18;3.70;;;0.77;;
43664;SDS011;29263;48.172;11.484;2024-02-14T08:02:48;1.42;;;0.70;;
43664;SDS011;29263;48.172;11.484;2024-02-14T08:05:14;1.03;;;0.60;;
43664;SDS011;29263;48.172;11.484;2024-02-14T08:07:39;1.57;;;0.93;;
43664;SDS011;29263;48.172;11.484;2024-02-14T08:10:05;1.03;;;0.50;;
43664;SDS011;29263;48.172;11.484;2024-02-14T08:12:31;0.80;;;0.50;;
43664;SDS011;29263;48.172;11.484;2024-02-14T08:14:56;1.53;;;0.80;;
43664;SDS011;29263;48.172;11.484;2024-02-14T08:17:22;1.50;;;0.93;;
43664;SDS011;29263;48.172;11.484;2024-02-14T08:19:47;1.63;;;0.73;;
43664;SDS011;29263;48.172;11.484;2024-02-14T08:22:13;2.93;;;0.67;;
43664;SDS011;29263;48.172;11.484;2024-02-14T08:24:39;5.40;;;0.80;;
43664;SDS011;29263;48.172;11.484;2024-02-14T08:27:04;0.97;;;0.70;;
43664;SDS011;29263;48.172;11.484;2024-02-14T08:29:31;1.90;;;0.80;;
43664;SDS011;29263;48.172;11.484;2024-02-14T08:31:57;1.77;;;0.80;;
43664;SDS011;29263;48.172;11.484;2024-02-14T08:34:23;1.83;;;0.67;;
43664;SDS011;29263;48.172;11.484;2024-02-14T08:36:48;2.73;;;0.80;;
43664;SDS011;29263;48.172;11.484;2024-02-14T08:39:14;1.07;;;0.60;;
43664;SDS011;29263;48.172;11.484;2024-02-14T08:41:40;2.03;;;0.90;;
43664;SDS011;29263;48.172;11.484;2024-02-14T08:44:08;1.83;;;0.80;;
43664;SDS011;29263;48.172;11.484;2024-02-14T08:46:33;2.23;;;0.70;;
43664;SDS011;29263;48.172;11.484;2024-02-14T08:49:00;1.77;;;0.70;;
43664;SDS011;29263;48.172;11.484;2024-02-14T08:51:33;2.77;;;0.77;;
43664;SDS011;29263;48.172;11.484;2024-02-14T08:53:59;3.97;;;0.87;;
43664;SDS011;29263;48.172;11.484;2024-02-14T08:56:25;2.77;;;0.73;;
43664;SDS011;29263;48.172;11.484;2024-02-14T08:58:51;1.33;;;0.53;;
43664;SDS011;29263;48.172;11.484;2024-02-14T09:01:16;1.47;;;0.70;;
43664;SDS011;29263;48.172;11.484;2024-02-14T09:03:42;2.50;;;0.70;;
43664;SDS011;29263;48.172;11.484;2024-02-14T09:06:12;1.90;;;0.60;;
43664;SDS011;29263;48.172;11.484;2024-02-14T09:08:43;1.80;;;0.50;;
43664;SDS011;29263;48.172;11.484;2024-02-14T09:11:09;0.70;;;0.50;;
43664;SDS011;29263;48.172;11.484;2024-02-14T09:13:34;2.83;;;0.53;;
43664;SDS011;29263;48.172;11.484;2024-02-14T09:16:00;0.90;;;0.50;;
43664;SDS011;29263;48.172;11.484;2024-02-14T09:18:26;0.63;;;0.33;;
43664;SDS011;29263;48.172;11.484;2024-02-14T09:20:52;2.63;;;0.50;;
43664;SDS011;29263;48.172;11.484;2024-02-14T09:23:17;2.00;;;0.60;;
43664;SDS011;29263;48.172;11.484;2024-02-14T09:25:48;1.70;;;0.50;;
43664;SDS011;29263;48.172;11.484;2024-02-14T09:28:15;0.93;;;0.43;;
43664;SDS011;29263;48.172;11.484;2024-02-14T09:30:41;2.00;;;0.40;;
43664;SDS011;29263;48.172;11.484;2024-02-14T09:33:07;2.53;;;0.50;;
43664;SDS011;29263;48.172;11.484;2024-02-14T09:35:32;4.67;;;0.37;;
43664;SDS011;29263;48.172;11.484;2024-02-14T09:37:58;1.43;;;0.77;;
43664;SDS011;29263;48.172;11.484;2024-02-14T09:40:24;1.03;;;0.70;;
43664;SDS011;29263;48.172;11.484;2024-02-14T09:42:54;2.50;;;0.70;;
43664;SDS011;29263;48.172;11.484;2024-02-14T09:45:24;3.60;;;0.70;;
43664;SDS011;29263;48.172;11.484;2024-02-14T09:47:51;0.97;;;0.63;;
43664;SDS011;29263;48.172;11.484;2024-02-14T09:50:17;0.70;;;0.40;;
43664;SDS011;29263;48.172;11.484;2024-02-14T09:52:45;2.90;;;0.47;;
43664;SDS011;29263;48.172;11.484;2024-02-14T09:55:15;1.43;;;1.27;;
43664;SDS011;29263;48.172;11.484;2024-02-14T09:57:42;1.93;;;0.67;;
43664;SDS011;29263;48.172;11.484;2024-02-14T10:00:11;1.20;;;0.50;;
43664;SDS011;29263;48.172;11.484;2024-02-14T10:02:40;1.50;;;0.60;;
43664;SDS011;29263;48.172;11.484;2024-02-14T10:05:06;2.73;;;0.60;;
43664;SDS011;29263;48.172;11.484;2024-02-14T10:07:41;2.80;;;0.53;;
43664;SDS011;29263;48.172;11.484;2024-02-14T10:10:08;1.30;;;0.50;;
43664;SDS011;29263;48.172;11.484;2024-02-14T10:12:35;0.93;;;0.30;;
43664;SDS011;29263;48.172;11.484;2024-02-14T10:15:01;0.87;;;0.33;;
43664;SDS011;29263;48.172;11.484;2024-02-14T10:17:29;1.73;;;0.50;;
43664;SDS011;29263;48.172;11.484;2024-02-14T10:19:58;0.53;;;0.40;;
43664;SDS011;29263;48.172;11.484;2024-02-14T10:22:36;1.03;;;0.53;;
43664;SDS011;29263;48.172;11.484;2024-02-14T10:25:03;1.70;;;0.37;;
43664;SDS011;29263;48.172;11.484;2024-02-14T10:27:36;0.43;;;0.40;;
43664;SDS011;29263;48.172;11.484;2024-02-14T10:30:04;3.67;;;0.50;;
43664;SDS011;29263;48.172;11.484;2024-02-14T10:32:33;1.27;;;0.60;;
43664;SDS011;29263;48.172;11.484;2024-02-14T10:34:59;1.30;;;0.40;;
43664;SDS011;29263;48.172;11.484;2024-02-14T10:37:26;1.60;;;0.40;;
43664;SDS011;29263;48.172;11.484;2024-02-14T10:39:55;2.50;;;0.40;;
43664;SDS011;29263;48.172;11.484;2024-02-14T10:42:23;1.27;;;0.90;;
43664;SDS011;29263;48.172;11.484;2024-02-14T10:44:49;0.93;;;0.55;;
43664;SDS011;29263;48.172;11.484;2024-02-14T10:47:19;4.32;;;0.65;;
43664;SDS011;29263;48.172;11.484;2024-02-14T10:49:48;2.25;;;0.35;;
43664;SDS011;29263;48.172;11.484;2024-02-14T10:52:16;0.38;;;0.22;;
43664;SDS011;29263;48.172;11.484;2024-02-14T10:54:43;0.82;;;0.40;;
43664;SDS011;29263;48.172;11.484;2024-02-14T10:57:17;1.25;;;0.35;;
43664;SDS011;29263;48.172;11.484;2024-02-14T10:59:45;1.65;;;0.47;;
43664;SDS011;29263;48.172;11.484;2024-02-14T11:02:13;0.75;;;0.50;;
43664;SDS011;29263;48.172;11.484;2024-02-14T11:04:40;0.65;;;0.32;;
43664;SDS011;29263;48.172;11.484;2024-02-14T11:07:08;1.65;;;0.38;;
43664;SDS011;29263;48.172;11.484;2024-02-14T11:09:37;0.80;;;0.38;;
43664;SDS011;29263;48.172;11.484;2024-02-14T11:12:07;0.40;;;0.30;;
43664;SDS011;29263;48.172;11.484;2024-02-14T11:14:36;3.05;;;0.40;;
43664;SDS011;29263;48.172;11.484;2024-02-14T11:17:04;0.20;;;0.20;;
43664;SDS011;29263;48.172;11.484;2024-02-14T11:19:34;0.60;;;0.30;;
43664;SDS011;29263;48.172;11.484;2024-02-14T11:22:12;0.22;;;0.20;;
43664;SDS011;29263;48.172;11.484;2024-02-14T11:24:42;0.50;;;0.30;;
43664;SDS011;29263;48.172;11.484;2024-02-14T11:27:11;1.65;;;0.30;;
43664;SDS011;29263;48.172;11.484;2024-02-14T11:29:40;1.27;;;0.40;;
43664;SDS011;29263;48.172;11.484;2024-02-14T11:32:15;1.35;;;0.70;;
43664;SDS011;29263;48.172;11.484;2024-02-14T11:34:43;1.85;;;0.32;;
43664;SDS011;29263;48.172;11.484;2024-02-14T11:37:26;0.50;;;0.20;;
43664;SDS011;29263;48.172;11.484;2024-02-14T11:39:54;1.55;;;0.20;;
43664;SDS011;29263;48.172;11.484;2024-02-14T11:42:22;0.52;;;0.30;;
43664;SDS011;29263;48.172;11.484;2024-02-14T11:44:48;1.13;;;0.50;;
43664;SDS011;29263;48.172;11.484;2024-02-14T11:47:14;0.90;;;0.38;;
43664;SDS011;29263;48.172;11.484;2024-02-14T11:49:39;1.00;;;0.30;;
43664;SDS011;29263;48.172;11.484;2024-02-14T11:52:09;1.77;;;0.28;;
43664;SDS011;29263;48.172;11.484;2024-02-14T11:54:36;0.30;;;0.20;;
43664;SDS011;29263;48.172;11.484;2024-02-14T11:57:05;1.50;;;0.27;;
43664;SDS011;29263;48.172;11.484;2024-02-14T11:59:36;0.40;;;0.30;;
43664;SDS011;29263;48.172;11.484;2024-02-14T12:02:21;1.52;;;0.70;;
43664;SDS011;29263;48.172;11.484;2024-02-14T12:04:48;0.73;;;0.38;;
43664;SDS011;29263;48.172;11.484;2024-02-14T12:07:15;0.75;;;0.30;;
43664;SDS011;29263;48.172;11.484;2024-02-14T12:09:41;2.35;;;0.40;;
43664;SDS011;29263;48.172;11.484;2024-02-14T12:12:08;1.80;;;0.40;;
43664;SDS011;29263;48.172;11.484;2024-02-14T12:14:34;0.77;;;0.20;;
43664;SDS011;29263;48.172;11.484;2024-02-14T12:17:00;0.80;;;0.35;;
43664;SDS011;29263;48.172;11.484;2024-02-14T12:19:27;0.65;;;0.28;;
43664;SDS011;29263;48.172;11.484;2024-02-14T12:21:53;0.50;;;0.20;;
43664;SDS011;29263;48.172;11.484;2024-02-14T12:24:21;0.60;;;0.28;;
43664;SDS011;29263;48.172;11.484;2024-02-14T12:26:48;0.82;;;0.30;;
43664;SDS011;29263;48.172;11.484;2024-02-14T12:29:17;0.30;;;0.22;;
43664;SDS011;29263;48.172;11.484;2024-02-14T12:31:43;0.38;;;0.20;;
43664;SDS011;29263;48.172;11.484;2024-02-14T12:34:10;0.45;;;0.17;;
43664;SDS011;29263;48.172;11.484;2024-02-14T12:36:36;0.35;;;0.30;;
43664;SDS011;29263;48.172;11.484;2024-02-14T12:39:03;4.05;;;0.47;;
43664;SDS011;29263;48.172;11.484;2024-02-14T12:41:29;0.30;;;0.20;;
43664;SDS011;29263;48.172;11.484;2024-02-14T12:43:56;0.85;;;0.32;;
43664;SDS011;29263;48.172;11.484;2024-02-14T12:46:45;1.33;;;0.28;;
43664;SDS011;29263;48.172;11.484;2024-02-14T12:49:16;2.88;;;0.50;;
43664;SDS011;29263;48.172;11.484;2024-02-14T12:51:45;0.45;;;0.20;;
43664;SDS011;29263;48.172;11.484;2024-02-14T12:54:11;0.40;;;0.22;;
43664;SDS011;29263;48.172;11.484;2024-02-14T12:56:39;4.00;;;0.45;;
43664;SDS011;29263;48.172;11.484;2024-02-14T12:59:05;1.33;;;0.45;;
43664;SDS011;29263;48.172;11.484;2024-02-14T13:01:31;1.40;;;0.30;;
43664;SDS011;29263;48.172;11.484;2024-02-14T13:03:57;0.88;;;0.50;;
43664;SDS011;29263;48.172;11.484;2024-02-14T13:06:23;0.65;;;0.30;;
43664;SDS011;29263;48.172;11.484;2024-02-14T13:08:49;0.70;;;0.20;;
43664;SDS011;29263;48.172;11.484;2024-02-14T13:11:14;0.60;;;0.40;;
43664;SDS011;29263;48.172;11.484;2024-02-14T13:13:41;0.85;;;0.20;;
43664;SDS011;29263;48.172;11.484;2024-02-14T13:16:07;1.10;;;0.30;;
43664;SDS011;29263;48.172;11.484;2024-02-14T13:18:33;5.20;;;0.40;;
43664;SDS011;29263;48.172;11.484;2024-02-14T13:21:00;2.42;;;0.30;;
43664;SDS011;29263;48.172;11.484;2024-02-14T13:23:29;0.20;;;0.10;;
43664;SDS011;29263;48.172;11.484;2024-02-14T13:25:55;0.28;;;0.28;;
43664;SDS011;29263;48.172;11.484;2024-02-14T13:28:24;1.17;;;0.30;;
43664;SDS011;29263;48.172;11.484;2024-02-14T13:30:55;0.40;;;0.30;;
43664;SDS011;29263;48.172;11.484;2024-02-14T13:33:22;2.78;;;0.28;;
43664;SDS011;29263;48.172;11.484;2024-02-14T13:35:48;0.45;;;0.30;;
43664;SDS011;29263;48.172;11.484;2024-02-14T13:38:13;0.95;;;0.30;;
43664;SDS011;29263;48.172;11.484;2024-02-14T13:40:39;0.47;;;0.30;;
43664;SDS011;29263;48.172;11.484;2024-02-14T13:43:05;0.45;;;0.30;;
43664;SDS011;29263;48.172;11.484;2024-02-14T13:45:40;0.50;;;0.20;;
43664;SDS011;29263;48.172;11.484;2024-02-14T13:48:09;1.27;;;0.20;;
43664;SDS011;29263;48.172;11.484;2024-02-14T13:50:36;0.30;;;0.30;;
43664;SDS011;29263;48.172;11.484;2024-02-14T13:53:03;0.60;;;0.22;;
43664;SDS011;29263;48.172;11.484;2024-02-14T13:55:29;0.68;;;0.20;;
43664;SDS011;29263;48.172;11.484;2024-02-14T13:57:54;1.40;;;0.30;;
43664;SDS011;29263;48.172;11.484;2024-02-14T14:00:20;0.30;;;0.20;;
43664;SDS011;29263;48.172;11.484;2024-02-14T14:02:45;0.50;;;0.20;;
43664;SDS011;29263;48.172;11.484;2024-02-14T14:05:11;0.10;;;0.10;;
43664;SDS011;29263;48.172;11.484;2024-02-14T14:07:40;0.20;;;0.20;;
43664;SDS011;29263;48.172;11.484;2024-02-14T14:10:07;1.27;;;0.30;;
43664;SDS011;29263;48.172;11.484;2024-02-14T14:12:34;0.82;;;0.30;;
43664;SDS011;29263;48.172;11.484;2024-02-14T14:15:04;2.03;;;0.28;;
43664;SDS011;29263;48.172;11.484;2024-02-14T14:17:30;0.35;;;0.30;;
43664;SDS011;29263;48.172;11.484;2024-02-14T14:19:56;0.73;;;0.30;;
43664;SDS011;29263;48.172;11.484;2024-02-14T14:22:25;2.42;;;0.30;;
43664;SDS011;29263;48.172;11.484;2024-02-14T14:24:50;2.38;;;0.40;;
43664;SDS011;29263;48.172;11.484;2024-02-14T14:27:28;0.22;;;0.20;;
43664;SDS011;29263;48.172;11.484;2024-02-14T14:29:54;2.47;;;0.32;;
43664;SDS011;29263;48.172;11.484;2024-02-14T14:32:19;0.55;;;0.30;;